sensor_id;sensor_type;location;lat;lon;timestamp;temperature;humidity
23122;DHT22;11730;51.248;22.534;2022-07-17T00:00:23;11.70;99.90
23122;DHT22;11730;51.248;22.534;2022-07-17T00:02:50;11.70;99.90
23122;DHT22;11730;51.248;22.534;2022-07-17T00:05:17;11.70;99.90
23122;DHT22;11730;51.248;22.534;2022-07-17T00:07:44;11.70;99.90
23122;DHT22;11730;51.248;22.534;2022-07-17T00:10:14;11.70;99.90
23122;DHT22;11730;51.248;22.534;2022-07-17T00:12:41;11.80;99.90
23122;DHT22;11730;51.248;22.534;2022-07-17T00:15:08;11.70;99.90
23122;DHT22;11730;51.248;22.534;2022-07-17T00:17:35;11.10;99.90
23122;DHT22;11730;51.248;22.534;2022-07-17T00:20:04;11.70;99.90
23122;DHT22;11730;51.248;22.534;2022-07-17T00:22:31;11.70;99.90
23122;DHT22;11730;51.248;22.534;2022-07-17T00:24:58;11.70;99.90
23122;DHT22;11730;51.248;22.534;2022-07-17T00:27:25;11.70;99.90
23122;DHT22;11730;51.248;22.534;2022-07-17T00:29:52;11.60;99.90
23122;DHT22;11730;51.248;22.534;2022-07-17T00:32:19;11.60;99.90
23122;DHT22;11730;51.248;22.534;2022-07-17T00:34:46;11.60;99.90
23122;DHT22;11730;51.248;22.534;2022-07-17T00:37:13;11.60;99.90
23122;DHT22;11730;51.248;22.534;2022-07-17T00:39:40;11.60;99.90
23122;DHT22;11730;51.248;22.534;2022-07-17T00:42:12;11.60;99.90
23122;DHT22;11730;51.248;22.534;2022-07-17T00:44:40;11.60;99.90
23122;DHT22;11730;51.248;22.534;2022-07-17T00:47:15;11.60;99.90
23122;DHT22;11730;51.248;22.534;2022-07-17T00:49:43;11.60;99.90
23122;DHT22;11730;51.248;22.534;2022-07-17T00:52:11;11.60;99.90
23122;DHT22;11730;51.248;22.534;2022-07-17T00:54:40;11.70;99.90
23122;DHT22;11730;51.248;22.534;2022-07-17T00:57:12;11.70;99.90
23122;DHT22;11730;51.248;22.534;2022-07-17T00:59:39;11.70;99.90
23122;DHT22;11730;51.248;22.534;2022-07-17T01:02:09;11.70;99.90
23122;DHT22;11730;51.248;22.534;2022-07-17T01:04:37;11.70;99.90
23122;DHT22;11730;51.248;22.534;2022-07-17T01:07:06;11.70;99.90
23122;DHT22;11730;51.248;22.534;2022-07-17T01:09:33;11.70;99.90
23122;DHT22;11730;51.248;22.534;2022-07-17T01:12:01;11.70;99.90
23122;DHT22;11730;51.248;22.534;2022-07-17T01:14:28;11.80;99.90
23122;DHT22;11730;51.248;22.534;2022-07-17T01:16:56;11.70;99.90
23122;DHT22;11730;51.248;22.534;2022-07-17T01:19:22;11.60;99.90
23122;DHT22;11730;51.248;22.534;2022-07-17T01:21:50;11.60;99.90
23122;DHT22;11730;51.248;22.534;2022-07-17T01:24:17;11.60;99.90
23122;DHT22;11730;51.248;22.534;2022-07-17T01:26:48;11.60;99.90
23122;DHT22;11730;51.248;22.534;2022-07-17T01:29:17;11.60;99.90
23122;DHT22;11730;51.248;22.534;2022-07-17T01:31:45;11.60;99.90
23122;DHT22;11730;51.248;22.534;2022-07-17T01:34:13;11.70;99.90
23122;DHT22;11730;51.248;22.534;2022-07-17T01:36:40;11.60;99.90
23122;DHT22;11730;51.248;22.534;2022-07-17T01:39:08;11.70;99.90
23122;DHT22;11730;51.248;22.534;2022-07-17T01:41:36;11.60;99.90
23122;DHT22;11730;51.248;22.534;2022-07-17T01:44:04;11.60;99.90
23122;DHT22;11730;51.248;22.534;2022-07-17T01:46:31;11.60;99.90
23122;DHT22;11730;51.248;22.534;2022-07-17T01:48:59;11.50;99.90
23122;DHT22;11730;51.248;22.534;2022-07-17T01:51:28;11.60;99.90
23122;DHT22;11730;51.248;22.534;2022-07-17T01:53:58;11.70;99.90
23122;DHT22;11730;51.248;22.534;2022-07-17T01:56:25;11.70;99.90
23122;DHT22;11730;51.248;22.534;2022-07-17T01:58:52;11.70;99.90
23122;DHT22;11730;51.248;22.534;2022-07-17T02:01:19;11.70;99.90
23122;DHT22;11730;51.248;22.534;2022-07-17T02:03:47;11.70;99.90
23122;DHT22;11730;51.248;22.534;2022-07-17T02:06:13;11.70;99.90
23122;DHT22;11730;51.248;22.534;2022-07-17T02:08:40;11.70;99.90
23122;DHT22;11730;51.248;22.534;2022-07-17T02:11:08;11.70;99.90
23122;DHT22;11730;51.248;22.534;2022-07-17T02:13:35;11.70;99.90
23122;DHT22;11730;51.248;22.534;2022-07-17T02:16:02;11.70;99.90
23122;DHT22;11730;51.248;22.534;2022-07-17T02:18:29;11.70;99.90
23122;DHT22;11730;51.248;22.534;2022-07-17T02:20:56;11.70;99.90
23122;DHT22;11730;51.248;22.534;2022-07-17T02:23:23;11.80;99.90
23122;DHT22;11730;51.248;22.534;2022-07-17T02:25:50;11.80;99.90
23122;DHT22;11730;51.248;22.534;2022-07-17T02:28:17;11.70;99.90
23122;DHT22;11730;51.248;22.534;2022-07-17T02:30:46;11.70;99.90
23122;DHT22;11730;51.248;22.534;2022-07-17T02:33:13;11.60;99.90
23122;DHT22;11730;51.248;22.534;2022-07-17T02:35:40;11.60;99.90
23122;DHT22;11730;51.248;22.534;2022-07-17T02:38:07;11.60;99.90
23122;DHT22;11730;51.248;22.534;2022-07-17T02:40:34;11.50;99.90
23122;DHT22;11730;51.248;22.534;2022-07-17T02:43:02;11.50;99.90
23122;DHT22;11730;51.248;22.534;2022-07-17T02:45:29;11.50;99.90
23122;DHT22;11730;51.248;22.534;2022-07-17T02:47:56;11.50;99.90
23122;DHT22;11730;51.248;22.534;2022-07-17T02:50:23;11.50;99.90
23122;DHT22;11730;51.248;22.534;2022-07-17T02:52:50;11.50;99.90
23122;DHT22;11730;51.248;22.534;2022-07-17T02:55:17;11.40;99.90
23122;DHT22;11730;51.248;22.534;2022-07-17T02:57:45;11.40;99.90
23122;DHT22;11730;51.248;22.534;2022-07-17T03:00:16;11.30;99.90
23122;DHT22;11730;51.248;22.534;2022-07-17T03:02:44;11.30;99.90
23122;DHT22;11730;51.248;22.534;2022-07-17T03:05:13;11.30;99.90
23122;DHT22;11730;51.248;22.534;2022-07-17T03:07:41;11.30;99.90
23122;DHT22;11730;51.248;22.534;2022-07-17T03:10:09;11.30;99.90
23122;DHT22;11730;51.248;22.534;2022-07-17T03:12:36;11.30;99.90
23122;DHT22;11730;51.248;22.534;2022-07-17T03:15:04;11.40;99.90
23122;DHT22;11730;51.248;22.534;2022-07-17T03:17:32;11.50;99.90
23122;DHT22;11730;51.248;22.534;2022-07-17T03:19:59;11.40;99.90
23122;DHT22;11730;51.248;22.534;2022-07-17T03:22:26;11.50;99.90
23122;DHT22;11730;51.248;22.534;2022-07-17T03:24:53;11.50;99.90
23122;DHT22;11730;51.248;22.534;2022-07-17T03:27:21;11.50;99.90
23122;DHT22;11730;51.248;22.534;2022-07-17T03:29:48;11.50;99.90
23122;DHT22;11730;51.248;22.534;2022-07-17T03:32:15;11.50;99.90
23122;DHT22;11730;51.248;22.534;2022-07-17T03:34:42;11.50;99.90
23122;DHT22;11730;51.248;22.534;2022-07-17T03:37:09;11.60;99.90
23122;DHT22;11730;51.248;22.534;2022-07-17T03:39:36;11.60;99.90
23122;DHT22;11730;51.248;22.534;2022-07-17T03:42:03;11.60;99.90
23122;DHT22;11730;51.248;22.534;2022-07-17T03:44:30;11.60;99.90
23122;DHT22;11730;51.248;22.534;2022-07-17T03:46:57;11.70;99.90
23122;DHT22;11730;51.248;22.534;2022-07-17T03:49:24;11.70;99.90
23122;DHT22;11730;51.248;22.534;2022-07-17T03:51:51;11.80;99.90
23122;DHT22;11730;51.248;22.534;2022-07-17T03:54:18;11.80;99.90
23122;DHT22;11730;51.248;22.534;2022-07-17T03:56:45;11.90;99.90
23122;DHT22;11730;51.248;22.534;2022-07-17T03:59:12;11.90;99.90
23122;DHT22;11730;51.248;22.534;2022-07-17T04:01:39;12.00;99.90
23122;DHT22;11730;51.248;22.534;2022-07-17T04:04:06;12.00;99.90
23122;DHT22;11730;51.248;22.534;2022-07-17T04:06:33;12.00;99.90
23122;DHT22;11730;51.248;22.534;2022-07-17T04:09:00;12.00;99.90
23122;DHT22;11730;51.248;22.534;2022-07-17T04:11:27;12.00;99.90
23122;DHT22;11730;51.248;22.534;2022-07-17T04:13:55;12.00;99.90
23122;DHT22;11730;51.248;22.534;2022-07-17T04:16:22;12.00;99.90
23122;DHT22;11730;51.248;22.534;2022-07-17T04:18:49;12.10;99.90
23122;DHT22;11730;51.248;22.534;2022-07-17T04:21:16;12.10;99.90
23122;DHT22;11730;51.248;22.534;2022-07-17T04:23:43;12.10;99.90
23122;DHT22;11730;51.248;22.534;2022-07-17T04:26:10;12.10;99.90
23122;DHT22;11730;51.248;22.534;2022-07-17T04:28:38;12.10;99.90
23122;DHT22;11730;51.248;22.534;2022-07-17T04:31:05;12.20;99.90
23122;DHT22;11730;51.248;22.534;2022-07-17T04:33:32;12.20;99.90
23122;DHT22;11730;51.248;22.534;2022-07-17T04:35:59;12.10;99.90
23122;DHT22;11730;51.248;22.534;2022-07-17T04:38:26;12.20;99.90
23122;DHT22;11730;51.248;22.534;2022-07-17T04:40:53;12.20;99.90
23122;DHT22;11730;51.248;22.534;2022-07-17T04:43:20;12.20;99.90
23122;DHT22;11730;51.248;22.534;2022-07-17T04:45:47;12.30;99.90
23122;DHT22;11730;51.248;22.534;2022-07-17T04:48:15;12.40;99.90
23122;DHT22;11730;51.248;22.534;2022-07-17T04:50:41;12.30;99.90
23122;DHT22;11730;51.248;22.534;2022-07-17T04:53:08;12.40;99.90
23122;DHT22;11730;51.248;22.534;2022-07-17T04:55:35;12.40;99.90
23122;DHT22;11730;51.248;22.534;2022-07-17T04:58:03;12.40;99.90
23122;DHT22;11730;51.248;22.534;2022-07-17T05:00:30;12.40;99.90
23122;DHT22;11730;51.248;22.534;2022-07-17T05:02:57;12.40;99.90
23122;DHT22;11730;51.248;22.534;2022-07-17T05:05:25;12.30;99.90
23122;DHT22;11730;51.248;22.534;2022-07-17T05:07:52;12.50;99.90
23122;DHT22;11730;51.248;22.534;2022-07-17T05:10:20;12.40;99.90
23122;DHT22;11730;51.248;22.534;2022-07-17T05:12:53;12.40;99.90
23122;DHT22;11730;51.248;22.534;2022-07-17T05:15:20;12.40;99.90
23122;DHT22;11730;51.248;22.534;2022-07-17T05:17:47;12.40;99.90
23122;DHT22;11730;51.248;22.534;2022-07-17T05:20:14;12.50;99.90
23122;DHT22;11730;51.248;22.534;2022-07-17T05:22:41;12.60;99.90
23122;DHT22;11730;51.248;22.534;2022-07-17T05:25:08;12.60;99.90
23122;DHT22;11730;51.248;22.534;2022-07-17T05:27:35;12.80;99.90
23122;DHT22;11730;51.248;22.534;2022-07-17T05:30:03;13.00;99.90
23122;DHT22;11730;51.248;22.534;2022-07-17T05:32:30;13.00;99.90
23122;DHT22;11730;51.248;22.534;2022-07-17T05:34:57;13.10;99.90
23122;DHT22;11730;51.248;22.534;2022-07-17T05:37:24;13.10;99.90
23122;DHT22;11730;51.248;22.534;2022-07-17T05:39:51;13.00;99.90
23122;DHT22;11730;51.248;22.534;2022-07-17T05:42:18;13.30;99.90
23122;DHT22;11730;51.248;22.534;2022-07-17T05:44:45;13.50;99.90
23122;DHT22;11730;51.248;22.534;2022-07-17T05:47:12;13.50;99.90
23122;DHT22;11730;51.248;22.534;2022-07-17T05:49:39;13.40;99.90
23122;DHT22;11730;51.248;22.534;2022-07-17T05:52:07;13.30;99.90
23122;DHT22;11730;51.248;22.534;2022-07-17T05:54:34;13.20;99.90
23122;DHT22;11730;51.248;22.534;2022-07-17T05:57:01;13.10;99.90
23122;DHT22;11730;51.248;22.534;2022-07-17T05:59:35;13.00;99.90
23122;DHT22;11730;51.248;22.534;2022-07-17T06:02:03;13.00;99.90
23122;DHT22;11730;51.248;22.534;2022-07-17T06:04:30;13.00;99.90
23122;DHT22;11730;51.248;22.534;2022-07-17T06:06:57;13.00;99.90
23122;DHT22;11730;51.248;22.534;2022-07-17T06:09:24;13.00;99.90
23122;DHT22;11730;51.248;22.534;2022-07-17T06:11:51;13.10;99.90
23122;DHT22;11730;51.248;22.534;2022-07-17T06:14:18;13.00;99.90
23122;DHT22;11730;51.248;22.534;2022-07-17T06:16:45;12.90;99.90
23122;DHT22;11730;51.248;22.534;2022-07-17T06:19:12;13.10;99.90
23122;DHT22;11730;51.248;22.534;2022-07-17T06:21:39;13.20;99.90
23122;DHT22;11730;51.248;22.534;2022-07-17T06:24:06;13.40;99.90
23122;DHT22;11730;51.248;22.534;2022-07-17T06:26:33;13.40;99.90
23122;DHT22;11730;51.248;22.534;2022-07-17T06:29:00;13.40;99.90
23122;DHT22;11730;51.248;22.534;2022-07-17T06:31:27;13.50;99.90
23122;DHT22;11730;51.248;22.534;2022-07-17T06:33:55;13.70;99.90
23122;DHT22;11730;51.248;22.534;2022-07-17T06:36:22;13.90;99.90
23122;DHT22;11730;51.248;22.534;2022-07-17T06:38:49;13.90;99.90
23122;DHT22;11730;51.248;22.534;2022-07-17T06:41:16;13.80;99.90
23122;DHT22;11730;51.248;22.534;2022-07-17T06:43:43;13.90;99.90
23122;DHT22;11730;51.248;22.534;2022-07-17T06:46:09;13.80;99.90
23122;DHT22;11730;51.248;22.534;2022-07-17T06:48:37;13.90;99.90
23122;DHT22;11730;51.248;22.534;2022-07-17T06:51:04;13.90;99.90
23122;DHT22;11730;51.248;22.534;2022-07-17T06:53:31;14.10;99.90
23122;DHT22;11730;51.248;22.534;2022-07-17T06:55:57;14.40;99.90
23122;DHT22;11730;51.248;22.534;2022-07-17T06:58:24;14.40;99.90
23122;DHT22;11730;51.248;22.534;2022-07-17T07:00:51;14.70;99.90
23122;DHT22;11730;51.248;22.534;2022-07-17T07:03:18;14.80;99.90
23122;DHT22;11730;51.248;22.534;2022-07-17T07:05:45;15.00;99.90
23122;DHT22;11730;51.248;22.534;2022-07-17T07:08:12;15.20;99.90
23122;DHT22;11730;51.248;22.534;2022-07-17T07:10:39;15.20;99.90
23122;DHT22;11730;51.248;22.534;2022-07-17T07:13:06;14.90;99.90
23122;DHT22;11730;51.248;22.534;2022-07-17T07:15:33;14.80;99.90
23122;DHT22;11730;51.248;22.534;2022-07-17T07:18:01;15.00;99.90
23122;DHT22;11730;51.248;22.534;2022-07-17T07:20:28;15.20;99.90
23122;DHT22;11730;51.248;22.534;2022-07-17T07:22:55;15.50;99.90
23122;DHT22;11730;51.248;22.534;2022-07-17T07:25:23;15.80;99.90
23122;DHT22;11730;51.248;22.534;2022-07-17T07:27:50;16.10;99.90
23122;DHT22;11730;51.248;22.534;2022-07-17T07:30:17;15.90;99.90
23122;DHT22;11730;51.248;22.534;2022-07-17T07:32:45;15.80;99.90
23122;DHT22;11730;51.248;22.534;2022-07-17T07:35:12;15.60;99.90
23122;DHT22;11730;51.248;22.534;2022-07-17T07:37:39;15.80;99.90
23122;DHT22;11730;51.248;22.534;2022-07-17T07:40:07;16.10;99.90
23122;DHT22;11730;51.248;22.534;2022-07-17T07:42:35;16.40;99.90
23122;DHT22;11730;51.248;22.534;2022-07-17T07:45:02;16.40;99.90
23122;DHT22;11730;51.248;22.534;2022-07-17T07:47:29;16.30;99.90
23122;DHT22;11730;51.248;22.534;2022-07-17T07:49:56;17.00;99.90
23122;DHT22;11730;51.248;22.534;2022-07-17T07:52:23;17.10;99.90
23122;DHT22;11730;51.248;22.534;2022-07-17T07:54:50;17.50;99.90
23122;DHT22;11730;51.248;22.534;2022-07-17T07:57:17;17.80;99.90
23122;DHT22;11730;51.248;22.534;2022-07-17T07:59:44;18.30;99.90
23122;DHT22;11730;51.248;22.534;2022-07-17T08:02:11;18.80;99.90
23122;DHT22;11730;51.248;22.534;2022-07-17T08:04:38;18.80;99.90
23122;DHT22;11730;51.248;22.534;2022-07-17T08:07:05;19.20;99.90
23122;DHT22;11730;51.248;22.534;2022-07-17T08:09:32;19.50;99.90
23122;DHT22;11730;51.248;22.534;2022-07-17T08:11:59;18.60;99.90
23122;DHT22;11730;51.248;22.534;2022-07-17T08:14:31;18.80;99.90
23122;DHT22;11730;51.248;22.534;2022-07-17T08:16:58;18.20;99.90
23122;DHT22;11730;51.248;22.534;2022-07-17T08:19:25;17.80;99.90
23122;DHT22;11730;51.248;22.534;2022-07-17T08:21:52;17.90;99.90
23122;DHT22;11730;51.248;22.534;2022-07-17T08:24:19;18.10;99.90
23122;DHT22;11730;51.248;22.534;2022-07-17T08:26:46;18.60;99.90
23122;DHT22;11730;51.248;22.534;2022-07-17T08:29:13;19.40;99.90
23122;DHT22;11730;51.248;22.534;2022-07-17T08:32:02;19.70;97.60
23122;DHT22;11730;51.248;22.534;2022-07-17T08:34:29;19.10;97.20
23122;DHT22;11730;51.248;22.534;2022-07-17T08:36:57;18.50;97.30
23122;DHT22;11730;51.248;22.534;2022-07-17T08:39:24;18.90;98.40
23122;DHT22;11730;51.248;22.534;2022-07-17T08:41:51;19.50;98.60
23122;DHT22;11730;51.248;22.534;2022-07-17T08:44:18;19.70;97.00
23122;DHT22;11730;51.248;22.534;2022-07-17T08:46:45;19.90;95.10
23122;DHT22;11730;51.248;22.534;2022-07-17T08:49:13;20.50;95.30
23122;DHT22;11730;51.248;22.534;2022-07-17T08:51:41;20.60;93.80
23122;DHT22;11730;51.248;22.534;2022-07-17T08:54:12;20.80;95.50
23122;DHT22;11730;51.248;22.534;2022-07-17T08:56:39;20.70;93.50
23122;DHT22;11730;51.248;22.534;2022-07-17T08:59:06;20.00;93.10
23122;DHT22;11730;51.248;22.534;2022-07-17T09:01:33;20.10;94.60
23122;DHT22;11730;51.248;22.534;2022-07-17T09:04:02;20.20;92.20
23122;DHT22;11730;51.248;22.534;2022-07-17T09:06:33;20.70;92.90
23122;DHT22;11730;51.248;22.534;2022-07-17T09:09:07;21.10;91.70
23122;DHT22;11730;51.248;22.534;2022-07-17T09:11:50;20.90;91.20
23122;DHT22;11730;51.248;22.534;2022-07-17T09:14:19;20.10;91.20
23122;DHT22;11730;51.248;22.534;2022-07-17T09:16:58;20.30;91.60
23122;DHT22;11730;51.248;22.534;2022-07-17T09:19:30;20.60;92.20
23122;DHT22;11730;51.248;22.534;2022-07-17T09:22:15;20.50;91.20
23122;DHT22;11730;51.248;22.534;2022-07-17T09:24:55;19.60;89.60
23122;DHT22;11730;51.248;22.534;2022-07-17T09:30:11;20.00;90.90
23122;DHT22;11730;51.248;22.534;2022-07-17T09:32:40;20.30;88.60
23122;DHT22;11730;51.248;22.534;2022-07-17T09:35:10;19.90;89.50
23122;DHT22;11730;51.248;22.534;2022-07-17T09:37:38;20.10;90.00
23122;DHT22;11730;51.248;22.534;2022-07-17T09:40:09;20.40;89.80
23122;DHT22;11730;51.248;22.534;2022-07-17T09:42:37;20.20;88.50
23122;DHT22;11730;51.248;22.534;2022-07-17T09:45:09;20.40;88.60
23122;DHT22;11730;51.248;22.534;2022-07-17T09:47:38;20.70;88.80
23122;DHT22;11730;51.248;22.534;2022-07-17T09:50:07;20.80;89.20
23122;DHT22;11730;51.248;22.534;2022-07-17T09:52:36;20.20;85.10
23122;DHT22;11730;51.248;22.534;2022-07-17T09:55:05;20.60;86.10
23122;DHT22;11730;51.248;22.534;2022-07-17T09:57:54;20.90;85.50
23122;DHT22;11730;51.248;22.534;2022-07-17T10:00:21;21.50;88.10
23122;DHT22;11730;51.248;22.534;2022-07-17T10:02:50;20.80;83.60
23122;DHT22;11730;51.248;22.534;2022-07-17T10:05:18;21.40;85.20
23122;DHT22;11730;51.248;22.534;2022-07-17T10:07:46;22.10;83.40
23122;DHT22;11730;51.248;22.534;2022-07-17T10:10:14;22.20;79.80
23122;DHT22;11730;51.248;22.534;2022-07-17T10:12:43;22.10;80.10
23122;DHT22;11730;51.248;22.534;2022-07-17T10:15:11;22.10;83.60
23122;DHT22;11730;51.248;22.534;2022-07-17T10:17:38;22.30;77.50
23122;DHT22;11730;51.248;22.534;2022-07-17T10:20:12;21.80;81.80
23122;DHT22;11730;51.248;22.534;2022-07-17T10:22:50;21.50;80.10
23122;DHT22;11730;51.248;22.534;2022-07-17T10:25:19;21.30;81.60
23122;DHT22;11730;51.248;22.534;2022-07-17T10:27:54;21.10;84.80
23122;DHT22;11730;51.248;22.534;2022-07-17T10:30:29;21.80;82.50
23122;DHT22;11730;51.248;22.534;2022-07-17T10:32:59;21.70;81.10
23122;DHT22;11730;51.248;22.534;2022-07-17T10:35:28;22.20;80.40
23122;DHT22;11730;51.248;22.534;2022-07-17T10:38:12;23.10;78.80
23122;DHT22;11730;51.248;22.534;2022-07-17T10:40:40;23.60;78.50
23122;DHT22;11730;51.248;22.534;2022-07-17T10:43:09;23.10;75.40
23122;DHT22;11730;51.248;22.534;2022-07-17T10:45:41;22.80;74.60
23122;DHT22;11730;51.248;22.534;2022-07-17T10:48:18;23.40;75.40
23122;DHT22;11730;51.248;22.534;2022-07-17T10:50:52;23.80;72.90
23122;DHT22;11730;51.248;22.534;2022-07-17T10:53:30;24.10;73.10
23122;DHT22;11730;51.248;22.534;2022-07-17T10:56:06;23.50;71.30
23122;DHT22;11730;51.248;22.534;2022-07-17T10:58:39;24.10;76.00
23122;DHT22;11730;51.248;22.534;2022-07-17T11:06:13;23.40;71.30
23122;DHT22;11730;51.248;22.534;2022-07-17T11:11:20;22.00;73.10
23122;DHT22;11730;51.248;22.534;2022-07-17T11:14:16;21.80;77.20
23122;DHT22;11730;51.248;22.534;2022-07-17T11:16:47;21.80;76.00
23122;DHT22;11730;51.248;22.534;2022-07-17T11:19:26;22.60;77.60
23122;DHT22;11730;51.248;22.534;2022-07-17T11:21:55;24.20;75.50
23122;DHT22;11730;51.248;22.534;2022-07-17T11:24:24;24.30;67.60
23122;DHT22;11730;51.248;22.534;2022-07-17T11:26:52;24.00;67.20
23122;DHT22;11730;51.248;22.534;2022-07-17T11:29:20;24.90;64.20
23122;DHT22;11730;51.248;22.534;2022-07-17T11:31:55;25.70;66.10
23122;DHT22;11730;51.248;22.534;2022-07-17T11:34:25;25.90;62.70
23122;DHT22;11730;51.248;22.534;2022-07-17T11:37:02;25.20;62.40
23122;DHT22;11730;51.248;22.534;2022-07-17T11:39:41;25.50;64.60
23122;DHT22;11730;51.248;22.534;2022-07-17T11:42:10;25.20;62.80
23122;DHT22;11730;51.248;22.534;2022-07-17T11:44:37;25.10;62.70
23122;DHT22;11730;51.248;22.534;2022-07-17T11:47:05;25.40;60.90
23122;DHT22;11730;51.248;22.534;2022-07-17T11:49:38;25.30;61.70
23122;DHT22;11730;51.248;22.534;2022-07-17T11:52:17;25.90;61.60
23122;DHT22;11730;51.248;22.534;2022-07-17T11:57:12;27.40;60.20
23122;DHT22;11730;51.248;22.534;2022-07-17T11:59:40;25.80;56.80
23122;DHT22;11730;51.248;22.534;2022-07-17T12:04:36;25.80;57.00
23122;DHT22;11730;51.248;22.534;2022-07-17T12:07:14;25.30;60.60
23122;DHT22;11730;51.248;22.534;2022-07-17T12:09:42;25.90;58.50
23122;DHT22;11730;51.248;22.534;2022-07-17T12:12:24;25.20;55.60
23122;DHT22;11730;51.248;22.534;2022-07-17T12:14:56;25.00;57.80
23122;DHT22;11730;51.248;22.534;2022-07-17T12:17:25;25.20;59.60
23122;DHT22;11730;51.248;22.534;2022-07-17T12:20:04;25.30;58.30
23122;DHT22;11730;51.248;22.534;2022-07-17T12:22:50;26.50;61.20
23122;DHT22;11730;51.248;22.534;2022-07-17T12:25:27;24.90;58.90
23122;DHT22;11730;51.248;22.534;2022-07-17T12:27:54;24.10;60.50
23122;DHT22;11730;51.248;22.534;2022-07-17T12:30:22;23.90;60.60
23122;DHT22;11730;51.248;22.534;2022-07-17T12:32:49;23.30;61.40
23122;DHT22;11730;51.248;22.534;2022-07-17T12:35:16;23.60;63.80
23122;DHT22;11730;51.248;22.534;2022-07-17T12:37:43;23.70;64.70
23122;DHT22;11730;51.248;22.534;2022-07-17T12:40:10;23.30;62.90
23122;DHT22;11730;51.248;22.534;2022-07-17T12:42:42;22.80;64.80
23122;DHT22;11730;51.248;22.534;2022-07-17T12:45:10;22.20;65.60
23122;DHT22;11730;51.248;22.534;2022-07-17T12:47:37;21.80;67.30
23122;DHT22;11730;51.248;22.534;2022-07-17T12:50:05;21.70;68.00
23122;DHT22;11730;51.248;22.534;2022-07-17T12:52:32;21.70;68.00
23122;DHT22;11730;51.248;22.534;2022-07-17T12:54:59;21.50;66.50
23122;DHT22;11730;51.248;22.534;2022-07-17T12:57:26;21.20;66.90
23122;DHT22;11730;51.248;22.534;2022-07-17T12:59:53;21.10;68.80
23122;DHT22;11730;51.248;22.534;2022-07-17T13:02:20;20.50;75.90
23122;DHT22;11730;51.248;22.534;2022-07-17T13:04:48;19.90;80.10
23122;DHT22;11730;51.248;22.534;2022-07-17T13:07:15;19.90;80.50
23122;DHT22;11730;51.248;22.534;2022-07-17T13:09:42;19.90;82.00
23122;DHT22;11730;51.248;22.534;2022-07-17T13:12:09;19.50;84.10
23122;DHT22;11730;51.248;22.534;2022-07-17T13:14:35;19.50;82.30
23122;DHT22;11730;51.248;22.534;2022-07-17T13:17:03;19.70;82.10
23122;DHT22;11730;51.248;22.534;2022-07-17T13:19:30;19.70;85.30
23122;DHT22;11730;51.248;22.534;2022-07-17T13:21:57;19.50;84.40
23122;DHT22;11730;51.248;22.534;2022-07-17T13:24:25;19.70;87.10
23122;DHT22;11730;51.248;22.534;2022-07-17T13:26:52;19.80;84.90
23122;DHT22;11730;51.248;22.534;2022-07-17T13:29:19;19.90;84.70
23122;DHT22;11730;51.248;22.534;2022-07-17T13:31:46;20.10;84.60
23122;DHT22;11730;51.248;22.534;2022-07-17T13:34:22;19.80;81.00
23122;DHT22;11730;51.248;22.534;2022-07-17T13:36:49;19.60;82.30
23122;DHT22;11730;51.248;22.534;2022-07-17T13:39:17;19.40;85.10
23122;DHT22;11730;51.248;22.534;2022-07-17T13:41:44;19.30;86.20
23122;DHT22;11730;51.248;22.534;2022-07-17T13:44:11;19.40;88.70
23122;DHT22;11730;51.248;22.534;2022-07-17T13:46:38;19.50;92.00
23122;DHT22;11730;51.248;22.534;2022-07-17T13:49:05;19.50;90.10
23122;DHT22;11730;51.248;22.534;2022-07-17T13:51:33;19.90;90.40
23122;DHT22;11730;51.248;22.534;2022-07-17T13:54:01;20.00;91.50
23122;DHT22;11730;51.248;22.534;2022-07-17T13:56:28;19.80;90.80
23122;DHT22;11730;51.248;22.534;2022-07-17T13:58:55;19.90;91.20
23122;DHT22;11730;51.248;22.534;2022-07-17T14:01:22;20.00;91.40
23122;DHT22;11730;51.248;22.534;2022-07-17T14:03:50;20.30;92.10
23122;DHT22;11730;51.248;22.534;2022-07-17T14:06:17;20.70;92.60
23122;DHT22;11730;51.248;22.534;2022-07-17T14:08:44;21.40;90.50
23122;DHT22;11730;51.248;22.534;2022-07-17T14:11:12;21.90;88.00
23122;DHT22;11730;51.248;22.534;2022-07-17T14:13:39;22.40;89.90
23122;DHT22;11730;51.248;22.534;2022-07-17T14:16:12;22.70;84.10
23122;DHT22;11730;51.248;22.534;2022-07-17T14:18:39;22.70;82.60
23122;DHT22;11730;51.248;22.534;2022-07-17T14:21:41;22.40;80.30
23122;DHT22;11730;51.248;22.534;2022-07-17T14:24:09;22.10;84.40
23122;DHT22;11730;51.248;22.534;2022-07-17T14:26:37;22.20;83.60
23122;DHT22;11730;51.248;22.534;2022-07-17T14:29:04;22.10;83.80
23122;DHT22;11730;51.248;22.534;2022-07-17T14:31:32;22.00;82.70
23122;DHT22;11730;51.248;22.534;2022-07-17T14:34:09;21.90;81.10
23122;DHT22;11730;51.248;22.534;2022-07-17T14:36:36;21.70;82.30
23122;DHT22;11730;51.248;22.534;2022-07-17T14:39:04;21.30;83.00
23122;DHT22;11730;51.248;22.534;2022-07-17T14:41:31;21.20;85.30
23122;DHT22;11730;51.248;22.534;2022-07-17T14:43:59;20.70;85.10
23122;DHT22;11730;51.248;22.534;2022-07-17T14:46:26;20.70;85.00
23122;DHT22;11730;51.248;22.534;2022-07-17T14:48:53;20.40;82.70
23122;DHT22;11730;51.248;22.534;2022-07-17T14:51:20;19.60;81.40
23122;DHT22;11730;51.248;22.534;2022-07-17T14:53:48;19.20;83.40
23122;DHT22;11730;51.248;22.534;2022-07-17T14:56:15;18.70;84.50
23122;DHT22;11730;51.248;22.534;2022-07-17T14:58:42;18.80;86.70
23122;DHT22;11730;51.248;22.534;2022-07-17T15:01:09;18.60;88.90
23122;DHT22;11730;51.248;22.534;2022-07-17T15:03:36;18.70;89.40
23122;DHT22;11730;51.248;22.534;2022-07-17T15:06:03;18.60;90.40
23122;DHT22;11730;51.248;22.534;2022-07-17T15:08:30;18.90;90.40
23122;DHT22;11730;51.248;22.534;2022-07-17T15:10:58;19.40;90.40
23122;DHT22;11730;51.248;22.534;2022-07-17T15:13:25;20.50;89.40
23122;DHT22;11730;51.248;22.534;2022-07-17T15:15:53;21.10;86.30
23122;DHT22;11730;51.248;22.534;2022-07-17T15:18:20;20.90;83.30
23122;DHT22;11730;51.248;22.534;2022-07-17T15:20:47;20.90;83.90
23122;DHT22;11730;51.248;22.534;2022-07-17T15:23:15;21.00;83.50
23122;DHT22;11730;51.248;22.534;2022-07-17T15:25:42;21.20;84.50
23122;DHT22;11730;51.248;22.534;2022-07-17T15:28:09;21.40;84.80
23122;DHT22;11730;51.248;22.534;2022-07-17T15:30:36;21.80;84.60
23122;DHT22;11730;51.248;22.534;2022-07-17T15:33:03;22.00;81.90
23122;DHT22;11730;51.248;22.534;2022-07-17T15:35:31;22.30;80.50
23122;DHT22;11730;51.248;22.534;2022-07-17T15:37:58;22.30;80.70